Time;durP1;ratioP1;P1;durP2;ratioP2;P2;SDS_P1;SDS_P2;PMS_P1;PMS_P2;Temp;Humidity;BMP_temperature;BMP_pressure;BME280_temperature;BME280_humidity;BME280_pressure;Samples;Min_cycle;Max_cycle;Signal;HPM_P1;HPM_P2
2023/07/11 00:00:49;;;;;;;6.40;5.80;;;;;;;25.05;41.64;95498.69;6177890;28;109685;-65
2023/07/11 00:03:54;;;;;;;7.00;6.30;;;;;;;25.09;41.26;95499.63;6182990;28;108958;-72
2023/07/11 00:06:57;;;;;;;6.17;5.77;;;;;;;25.04;41.44;95501.66;6175747;28;109075;-72
2023/07/11 00:10:00;;;;;;;6.33;5.90;;;;;;;24.99;41.74;95502.59;6152830;28;109838;-72
2023/07/11 00:13:03;;;;;;;6.30;5.80;;;;;;;24.97;41.54;95512.81;6166310;28;109017;-68
2023/07/11 00:16:09;;;;;;;6.23;5.83;;;;;;;24.84;41.73;95508.38;6205529;28;109861;-71
2023/07/11 00:19:15;;;;;;;6.03;5.63;;;;;;;25.06;41.64;95504.81;6173828;28;109358;-68
2023/07/11 00:22:19;;;;;;;6.73;6.23;;;;;;;25.19;41.38;95511.09;6189411;28;109021;-71
2023/07/11 00:25:22;;;;;;;6.50;6.00;;;;;;;25.21;41.19;95509.72;6189192;28;109203;-72
2023/07/11 00:28:26;;;;;;;6.50;6.03;;;;;;;25.30;41.50;95509.72;6194930;28;109423;-73
2023/07/11 00:31:29;;;;;;;6.37;5.87;;;;;;;25.27;41.21;95513.81;6174504;28;108809;-70
2023/07/11 00:34:34;;;;;;;6.37;5.87;;;;;;;25.29;40.97;95510.81;6186760;28;109300;-72
2023/07/11 00:37:37;;;;;;;6.70;6.20;;;;;;;25.14;41.51;95505.91;6181131;28;109116;-71
2023/07/11 00:40:41;;;;;;;7.43;6.50;;;;;;;25.16;41.66;95501.81;6176056;28;109320;-70
2023/07/11 00:43:44;;;;;;;5.90;5.50;;;;;;;25.17;41.79;95500.72;6158721;28;109751;-70
2023/07/11 00:46:47;;;;;;;6.50;6.00;;;;;;;25.22;41.62;95503.25;6185009;28;109327;-70
2023/07/11 00:49:55;;;;;;;7.00;6.20;;;;;;;25.04;41.74;95499.78;6174134;28;109183;-71
2023/07/11 00:52:59;;;;;;;6.30;5.70;;;;;;;25.13;41.50;95497.09;6157764;28;108832;-70
2023/07/11 00:56:08;;;;;;;6.60;6.00;;;;;;;25.17;41.09;95486.53;6175005;28;110267;-72
2023/07/11 00:59:14;;;;;;;6.10;5.70;;;;;;;24.92;41.54;95483.53;6183055;28;108988;-76
2023/07/11 01:02:20;;;;;;;6.30;5.80;;;;;;;24.98;41.51;95474.22;6183820;28;109050;-70
2023/07/11 01:05:25;;;;;;;6.63;6.17;;;;;;;25.04;41.33;95475.69;6180891;28;109089;-71
2023/07/11 01:08:28;;;;;;;7.07;6.50;;;;;;;25.12;41.19;95487.47;6171371;28;109194;-72
2023/07/11 01:11:33;;;;;;;6.63;6.03;;;;;;;25.10;41.14;95497.72;6179687;28;111036;-62
2023/07/11 01:14:37;;;;;;;6.50;6.00;;;;;;;25.08;41.31;95487.31;6182593;28;109217;-62
2023/07/11 01:17:41;;;;;;;6.77;6.27;;;;;;;24.92;41.26;95480.84;6174410;28;109771;-63
2023/07/11 01:20:46;;;;;;;8.83;5.97;;;;;;;24.98;41.50;95479.59;6184282;28;109059;-63
2023/07/11 01:23:50;;;;;;;6.40;5.90;;;;;;;25.09;41.09;95482.75;6182103;28;109071;-65
2023/07/11 01:26:56;;;;;;;6.50;6.00;;;;;;;25.04;41.30;95483.72;6171711;28;109273;-63
2023/07/11 01:30:03;;;;;;;6.73;6.23;;;;;;;25.09;40.94;95478.19;6158161;28;109558;-62
2023/07/11 01:33:06;;;;;;;7.10;6.50;;;;;;;25.10;41.50;95478.97;6174077;28;109141;-67
2023/07/11 01:36:10;;;;;;;6.80;6.20;;;;;;;25.10;41.24;95487.00;6177233;28;109206;-62
2023/07/11 01:39:16;;;;;;;8.30;6.93;;;;;;;24.92;41.73;95488.88;6173722;28;112292;-68
2023/07/11 01:42:19;;;;;;;7.30;6.80;;;;;;;24.99;41.69;95481.16;6170394;28;110180;-62
2023/07/11 01:45:23;;;;;;;7.57;7.03;;;;;;;24.75;41.94;95481.59;6177777;28;109883;-62
2023/07/11 01:48:26;;;;;;;6.43;5.93;;;;;;;24.73;42.54;95486.50;6172389;28;109010;-62
2023/07/11 01:51:29;;;;;;;7.60;7.00;;;;;;;24.71;42.62;95482.56;6164643;28;109054;-62
2023/07/11 01:54:35;;;;;;;7.10;6.50;;;;;;;24.47;43.05;95466.84;6179483;28;109125;-62
2023/07/11 01:57:38;;;;;;;7.47;6.77;;;;;;;24.19;43.63;95471.63;6183074;28;109098;-62
2023/07/11 02:00:41;;;;;;;6.80;6.30;;;;;;;24.46;43.11;95455.38;6184414;28;109513;-68
2023/07/11 02:03:44;;;;;;;6.90;6.40;;;;;;;24.74;42.37;95455.94;6175450;28;109420;-63
2023/07/11 02:06:48;;;;;;;7.10;6.50;;;;;;;24.84;42.60;95460.19;6196100;28;109149;-62
2023/07/11 02:09:52;;;;;;;6.83;6.33;;;;;;;24.96;42.08;95462.25;6172623;28;109083;-62
2023/07/11 02:12:55;;;;;;;6.90;6.30;;;;;;;25.00;42.00;95464.00;6150920;28;109186;-63
2023/07/11 02:15:58;;;;;;;8.50;6.70;;;;;;;24.92;41.58;95470.13;6195645;28;109918;-63
2023/07/11 02:19:02;;;;;;;6.97;6.37;;;;;;;24.95;41.86;95472.19;6176117;28;109531;-63
2023/07/11 02:22:05;;;;;;;7.40;6.80;;;;;;;25.00;41.70;95479.28;6160432;28;109087;-70
2023/07/11 02:25:10;;;;;;;9.00;6.67;;;;;;;25.03;41.60;95468.75;6167041;28;109183;-69
2023/07/11 02:28:13;;;;;;;7.03;6.50;;;;;;;24.96;42.06;95478.34;6167483;28;109604;-70
2023/07/11 02:31:16;;;;;;;6.73;6.13;;;;;;;24.96;41.90;95473.75;6185533;28;109656;-70
2023/07/11 02:34:19;;;;;;;7.20;6.60;;;;;;;24.98;41.67;95482.25;6185897;28;108895;-70
2023/07/11 02:37:22;;;;;;;7.70;7.10;;;;;;;24.92;41.84;95480.84;6163741;28;109013;-70
2023/07/11 02:40:27;;;;;;;6.77;6.27;;;;;;;24.92;41.82;95478.16;6173053;28;110685;-71
2023/07/11 02:43:30;;;;;;;6.97;6.33;;;;;;;24.80;41.96;95475.31;6176608;28;109066;-71
2023/07/11 02:46:34;;;;;;;7.00;6.30;;;;;;;24.75;42.05;95470.91;6179156;28;109093;-71
2023/07/11 02:49:38;;;;;;;7.90;7.20;;;;;;;24.38;43.48;95474.88;6173907;28;109104;-71
2023/07/11 02:52:41;;;;;;;9.17;8.37;;;;;;;24.30;43.94;95474.81;6167543;28;109036;-69
2023/07/11 02:55:45;;;;;;;8.10;7.50;;;;;;;24.28;43.92;95475.13;6184572;28;109490;-69
2023/07/11 02:58:51;;;;;;;8.37;7.60;;;;;;;24.28;43.87;95469.78;6167118;28;109356;-70
2023/07/11 03:01:56;;;;;;;9.90;8.70;;;;;;;24.43;43.77;95472.03;6182050;28;109233;-69
2023/07/11 03:04:59;;;;;;;20.50;18.77;;;;;;;24.49;43.55;95481.50;6188028;28;109072;-69
2023/07/11 03:08:02;;;;;;;27.87;25.57;;;;;;;24.69;43.23;95471.34;6185736;28;109305;-68
2023/07/11 03:11:06;;;;;;;21.17;19.50;;;;;;;24.78;43.05;95467.59;6164854;28;109063;-69
2023/07/11 03:14:10;;;;;;;17.20;15.70;;;;;;;24.83;43.05;95469.31;6204737;28;109302;-67
2023/07/11 03:17:13;;;;;;;21.83;20.07;;;;;;;24.78;43.12;95464.13;6193208;28;109591;-65
2023/07/11 03:20:16;;;;;;;24.30;22.30;;;;;;;24.81;43.12;95470.75;6186198;28;109575;-65
2023/07/11 03:23:20;;;;;;;46.73;42.47;;;;;;;24.82;43.26;95473.09;6161831;28;109083;-79
2023/07/11 03:26:25;;;;;;;43.53;39.63;;;;;;;24.95;43.13;95490.94;6188152;28;109059;-65
2023/07/11 03:29:28;;;;;;;33.33;30.43;;;;;;;25.02;42.54;95485.88;6187061;28;109066;-65
2023/07/11 03:32:32;;;;;;;26.23;23.93;;;;;;;25.08;42.64;95483.88;6177612;28;109339;-65
2023/07/11 03:35:35;;;;;;;21.03;19.23;;;;;;;25.05;43.03;95495.22;6174359;28;109547;-67
2023/07/11 03:38:39;;;;;;;17.53;15.10;;;;;;;24.97;43.63;95487.94;6187283;28;109054;-65
2023/07/11 03:41:43;;;;;;;14.23;12.97;;;;;;;24.90;44.05;95491.09;6171634;28;109404;-65
2023/07/11 03:44:46;;;;;;;17.43;12.63;;;;;;;24.84;43.99;95486.19;6159839;28;110378;-65
2023/07/11 03:47:50;;;;;;;18.23;16.50;;;;;;;24.77;44.68;95494.69;6200847;28;109105;-65
2023/07/11 03:50:53;;;;;;;12.20;10.93;;;;;;;24.72;44.45;95489.47;6181955;28;109048;-65
2023/07/11 03:53:56;;;;;;;11.20;10.13;;;;;;;24.68;44.63;95489.28;6171548;28;108847;-66
2023/07/11 03:57:00;;;;;;;11.10;10.10;;;;;;;24.76;44.19;95504.59;6169769;28;110089;-66
2023/07/11 04:00:04;;;;;;;21.67;19.93;;;;;;;24.82;44.88;95497.19;6170234;28;110343;-66
2023/07/11 04:03:07;;;;;;;17.83;16.27;;;;;;;24.70;45.22;95484.44;6166833;28;109499;-66
2023/07/11 04:06:11;;;;;;;12.03;10.83;;;;;;;24.66;45.23;95482.66;6186330;28;109075;-66
2023/07/11 04:09:15;;;;;;;10.97;9.67;;;;;;;24.67;45.14;95478.88;6206776;28;108949;-66
2023/07/11 04:12:20;;;;;;;11.23;8.97;;;;;;;24.81;45.29;95482.25;6211824;28;109139;-66
2023/07/11 04:15:23;;;;;;;11.40;9.87;;;;;;;25.00;45.51;95485.41;6184155;28;109204;-66
2023/07/11 04:18:27;;;;;;;10.43;9.63;;;;;;;25.09;45.80;95493.47;6170637;28;109684;-65
2023/07/11 04:21:30;;;;;;;9.77;8.87;;;;;;;25.14;45.48;95489.84;6163080;28;109376;-65
2023/07/11 04:24:34;;;;;;;10.50;9.20;;;;;;;25.23;45.63;95498.69;6186722;28;109348;-65
2023/07/11 04:27:39;;;;;;;10.40;9.40;;;;;;;25.25;45.56;95505.31;6197263;28;109131;-64
2023/07/11 04:30:42;;;;;;;10.50;9.50;;;;;;;25.29;45.52;95503.56;6161545;28;109085;-65
2023/07/11 04:33:45;;;;;;;14.00;12.50;;;;;;;25.26;45.63;95503.41;6190230;28;109166;-66
2023/07/11 04:36:48;;;;;;;11.40;10.00;;;;;;;25.24;45.43;95503.72;6203950;28;109539;-65
2023/07/11 04:39:52;;;;;;;12.10;10.80;;;;;;;25.14;46.13;95511.28;6183004;28;109378;-68
2023/07/11 04:42:59;;;;;;;11.03;9.93;;;;;;;25.05;45.98;95520.09;6179890;28;110120;-71
2023/07/11 04:46:03;;;;;;;10.93;9.30;;;;;;;25.02;46.10;95520.69;6211145;28;109032;-72
2023/07/11 04:49:07;;;;;;;10.30;9.30;;;;;;;25.02;46.15;95523.38;6211333;28;109059;-72
2023/07/11 04:52:11;;;;;;;14.70;12.00;;;;;;;24.98;46.09;95525.09;6200707;28;109233;-70
2023/07/11 04:55:14;;;;;;;14.37;12.93;;;;;;;24.97;46.04;95522.75;6210024;28;109375;-70
2023/07/11 04:58:19;;;;;;;14.20;12.90;;;;;;;24.99;46.35;95523.22;6211388;28;109397;-71
2023/07/11 05:01:22;;;;;;;11.00;10.00;;;;;;;24.98;46.12;95527.78;6210998;28;109967;-72
2023/07/11 05:04:26;;;;;;;10.47;9.37;;;;;;;24.96;46.02;95527.31;6199942;28;109164;-72
2023/07/11 05:07:29;;;;;;;10.03;8.97;;;;;;;24.95;45.84;95525.75;6210797;28;109493;-73
2023/07/11 05:10:32;;;;;;;10.37;9.47;;;;;;;24.94;45.89;95529.50;6209858;28;109098;-72
2023/07/11 05:13:36;;;;;;;9.40;8.60;;;;;;;24.96;45.94;95521.97;6206442;28;109941;-71
2023/07/11 05:16:40;;;;;;;9.70;8.80;;;;;;;24.97;46.21;95514.72;6175077;28;109087;-71
2023/07/11 05:19:43;;;;;;;9.40;8.50;;;;;;;24.94;46.73;95529.50;6186147;28;109053;-71
2023/07/11 05:22:46;;;;;;;9.00;8.20;;;;;;;24.96;46.64;95521.97;6185850;28;109292;-71
2023/07/11 05:25:49;;;;;;;8.60;7.90;;;;;;;24.98;46.26;95521.66;6180765;28;109195;-71
2023/07/11 05:28:54;;;;;;;9.00;8.10;;;;;;;24.97;46.17;95525.44;6180248;28;109104;-72
2023/07/11 05:31:57;;;;;;;8.80;8.10;;;;;;;24.96;46.66;95529.19;6185935;28;109119;-71
2023/07/11 05:35:00;;;;;;;8.77;7.97;;;;;;;24.97;45.95;95528.09;6185803;28;109089;-71
2023/07/11 05:38:03;;;;;;;9.47;8.60;;;;;;;24.93;46.31;95527.94;6175969;28;109155;-71
2023/07/11 05:41:06;;;;;;;8.87;7.97;;;;;;;25.00;46.37;95532.81;6184736;28;109046;-71
2023/07/11 05:44:12;;;;;;;8.80;8.10;;;;;;;25.11;47.83;95522.63;6193786;28;109274;-65
2023/07/11 05:47:15;;;;;;;9.17;8.43;;;;;;;25.27;47.25;95532.56;6210521;28;109036;-65
2023/07/11 05:50:21;;;;;;;9.73;8.83;;;;;;;25.33;47.50;95530.50;6199940;28;108725;-66
2023/07/11 05:53:24;;;;;;;9.50;8.40;;;;;;;25.37;47.26;95526.13;6210361;28;109345;-71
2023/07/11 05:56:31;;;;;;;9.57;8.60;;;;;;;25.24;46.93;95527.06;6210243;28;109489;-71
2023/07/11 05:59:36;;;;;;;10.27;8.20;;;;;;;25.42;46.73;95525.19;6205824;28;109051;-73
2023/07/11 06:02:39;;;;;;;10.53;9.63;;;;;;;25.50;46.54;95524.41;6205146;28;109049;-74
2023/07/11 06:05:42;;;;;;;9.83;8.87;;;;;;;25.40;47.70;95522.84;6209349;28;109077;-72
2023/07/11 06:08:46;;;;;;;10.17;9.17;;;;;;;25.32;47.46;95515.53;6210023;28;108581;-73
2023/07/11 06:11:50;;;;;;;9.27;8.47;;;;;;;25.40;47.69;95522.06;6199211;28;110121;-70
2023/07/11 06:14:54;;;;;;;10.73;8.37;;;;;;;25.52;48.29;95525.66;6195754;28;109396;-71
2023/07/11 06:17:57;;;;;;;8.80;8.00;;;;;;;25.66;46.84;95523.59;6185050;28;109105;-70
2023/07/11 06:21:01;;;;;;;7.97;7.37;;;;;;;25.75;46.44;95531.66;6185261;28;110031;-70
2023/07/11 06:24:04;;;;;;;8.87;7.37;;;;;;;25.81;46.48;95522.31;6175075;28;109000;-71
2023/07/11 06:27:07;;;;;;;8.87;8.07;;;;;;;25.86;46.25;95516.00;6185239;28;109092;-70
2023/07/11 06:30:13;;;;;;;8.07;7.30;;;;;;;25.91;46.07;95516.66;6185109;28;109341;-71
2023/07/11 06:33:17;;;;;;;7.20;6.70;;;;;;;25.96;46.42;95524.50;6185537;28;110101;-71
2023/07/11 06:36:21;;;;;;;8.03;7.43;;;;;;;26.01;46.33;95518.22;6174348;28;109064;-71
2023/07/11 06:39:25;;;;;;;8.23;7.57;;;;;;;26.07;46.10;95516.94;6184692;28;109030;-71
2023/07/11 06:42:28;;;;;;;8.37;7.57;;;;;;;26.09;46.16;95512.06;6184031;28;109847;-70
2023/07/11 06:45:32;;;;;;;8.03;7.33;;;;;;;26.14;45.96;95511.88;6197777;28;108988;-70
2023/07/11 06:48:36;;;;;;;8.23;7.43;;;;;;;26.19;46.25;95518.94;6212253;28;109636;-71
2023/07/11 06:51:39;;;;;;;7.73;7.10;;;;;;;26.21;46.16;95509.50;6213997;28;109044;-71
2023/07/11 06:54:42;;;;;;;7.60;7.00;;;;;;;26.26;46.12;95505.84;6213405;28;109342;-69
2023/07/11 06:57:45;;;;;;;8.03;7.17;;;;;;;26.30;45.84;95509.47;6204152;28;110181;-70
2023/07/11 07:00:54;;;;;;;7.63;7.03;;;;;;;26.32;46.14;95506.44;6212714;28;109023;-71
2023/07/11 07:03:58;;;;;;;7.67;6.97;;;;;;;26.37;45.47;95508.94;6209067;28;109708;-63
2023/07/11 07:07:03;;;;;;;7.80;7.00;;;;;;;26.38;46.03;95505.97;6209098;28;109030;-63
2023/07/11 07:10:08;;;;;;;7.60;7.00;;;;;;;26.43;45.57;95507.69;6200214;28;110470;-65
2023/07/11 07:13:11;;;;;;;7.93;7.20;;;;;;;26.45;45.43;95502.78;6207743;28;109056;-64
2023/07/11 07:16:15;;;;;;;8.17;7.57;;;;;;;26.49;46.04;95498.31;6159903;28;108997;-63
2023/07/11 07:19:19;;;;;;;7.67;7.07;;;;;;;26.52;45.47;95511.09;6159052;28;110372;-64
2023/07/11 07:22:22;;;;;;;7.90;7.30;;;;;;;26.50;45.86;95510.63;6158893;28;110082;-63
2023/07/11 07:25:25;;;;;;;8.40;7.60;;;;;;;26.44;45.80;95509.25;6164382;28;111409;-63
2023/07/11 07:28:30;;;;;;;8.60;7.90;;;;;;;26.46;45.40;95501.66;6163698;28;109388;-63
2023/07/11 07:31:35;;;;;;;8.40;7.73;;;;;;;26.50;45.90;95498.00;6165559;28;109139;-64
2023/07/11 07:34:38;;;;;;;8.90;7.40;;;;;;;26.54;45.46;95493.56;6189041;28;109248;-64
2023/07/11 07:37:41;;;;;;;9.40;8.60;;;;;;;26.57;45.27;95498.31;6188276;28;108936;-63
2023/07/11 07:40:44;;;;;;;8.53;7.73;;;;;;;26.60;45.40;95488.81;6188044;28;109011;-64
2023/07/11 07:43:48;;;;;;;8.13;7.43;;;;;;;26.63;45.46;95488.19;6177117;28;109205;-64
2023/07/11 07:46:52;;;;;;;8.40;7.50;;;;;;;26.66;45.52;95490.22;6188363;28;109376;-64
2023/07/11 07:49:55;;;;;;;7.90;7.17;;;;;;;26.69;45.28;95489.56;6187982;28;109153;-64
2023/07/11 07:53:01;;;;;;;9.13;8.30;;;;;;;26.72;44.79;95488.94;6186522;28;111191;-65
2023/07/11 07:56:06;;;;;;;10.93;8.30;;;;;;;26.77;45.25;95480.69;6180879;28;109131;-64
2023/07/11 07:59:09;;;;;;;10.23;9.17;;;;;;;26.80;44.92;95482.72;6187379;28;109190;-64
2023/07/11 08:02:13;;;;;;;9.07;8.23;;;;;;;26.84;44.82;95485.53;6187418;28;109306;-64
2023/07/11 08:05:17;;;;;;;9.03;8.23;;;;;;;26.85;44.86;95487.91;6176962;28;110372;-64
2023/07/11 08:08:21;;;;;;;9.67;8.70;;;;;;;26.87;44.95;95485.66;6187085;28;109038;-64
2023/07/11 08:11:24;;;;;;;8.80;8.10;;;;;;;26.89;45.35;95485.38;6187533;28;109057;-71
2023/07/11 08:14:27;;;;;;;9.60;8.80;;;;;;;26.91;45.20;95482.34;6196492;28;109080;-72
2023/07/11 08:17:32;;;;;;;9.10;8.30;;;;;;;26.94;44.65;95479.00;6201538;28;109493;-71
2023/07/11 08:20:35;;;;;;;9.07;8.37;;;;;;;26.95;45.06;95464.47;6212457;28;111091;-73
2023/07/11 08:23:39;;;;;;;9.00;8.17;;;;;;;26.98;44.97;95469.19;6211506;28;109352;-71
2023/07/11 08:26:42;;;;;;;10.10;9.30;;;;;;;26.99;44.77;95468.84;6213124;28;109412;-71
2023/07/11 08:29:46;;;;;;;9.93;9.03;;;;;;;27.00;44.95;95477.69;6201160;28;108935;-71
2023/07/11 08:32:50;;;;;;;10.00;8.73;;;;;;;27.01;44.92;95474.69;6214155;28;108797;-71
2023/07/11 08:35:56;;;;;;;9.13;8.20;;;;;;;27.06;44.34;95468.34;6212507;28;109277;-72
2023/07/11 08:38:59;;;;;;;10.00;9.10;;;;;;;27.07;44.65;95472.59;6208222;28;109051;-70
2023/07/11 08:42:07;;;;;;;9.73;8.83;;;;;;;27.06;44.54;95465.66;6210061;28;108840;-72
2023/07/11 08:45:19;;;;;;;9.80;8.90;;;;;;;27.08;44.42;95469.59;6214300;28;109066;-72
2023/07/11 08:48:28;;;;;;;12.30;8.77;;;;;;;27.09;44.23;95468.47;6216796;28;109194;-70
2023/07/11 08:51:36;;;;;;;10.00;9.20;;;;;;;27.10;44.24;95471.94;6209408;28;110866;-72
2023/07/11 08:54:56;;;;;;;9.80;8.90;;;;;;;27.12;44.90;95462.44;6218700;28;108920;-71
2023/07/11 08:58:05;;;;;;;9.20;8.40;;;;;;;27.14;44.34;95462.91;6217077;28;109081;-70
2023/07/11 09:01:25;;;;;;;9.67;8.67;;;;;;;27.14;44.50;95452.16;6216174;28;109312;-66
2023/07/11 09:04:31;;;;;;;10.20;9.30;;;;;;;27.15;45.01;95450.25;6207208;28;109072;-71
2023/07/11 09:07:38;;;;;;;9.60;8.80;;;;;;;27.16;44.64;95459.88;6214950;28;109081;-72
2023/07/11 09:10:48;;;;;;;9.43;8.67;;;;;;;27.15;44.92;95448.34;6216233;28;108708;-73
2023/07/11 09:14:06;;;;;;;10.47;9.57;;;;;;;27.12;44.91;95451.69;6207579;28;109294;-71
2023/07/11 09:17:19;;;;;;;10.13;9.20;;;;;;;27.14;44.15;95457.53;6217470;28;110092;-71
2023/07/11 09:20:34;;;;;;;9.27;8.57;;;;;;;27.13;44.20;95447.09;6217413;28;108758;-71
2023/07/11 09:23:44;;;;;;;11.00;9.80;;;;;;;27.11;44.09;95442.06;6217773;28;108686;-73
2023/07/11 09:26:50;;;;;;;9.23;8.43;;;;;;;27.11;43.80;95446.66;6208239;28;109484;-71
2023/07/11 09:29:55;;;;;;;9.43;8.63;;;;;;;27.13;43.64;95439.03;6217661;28;109095;-71
2023/07/11 09:33:11;;;;;;;9.43;8.70;;;;;;;27.12;44.10;95445.53;6216913;28;109333;-73
2023/07/11 09:36:21;;;;;;;8.97;8.27;;;;;;;27.10;44.26;95437.81;6207117;28;109196;-71
2023/07/11 09:39:32;;;;;;;9.80;8.90;;;;;;;27.09;43.67;95444.28;6217413;28;109049;-72
2023/07/11 09:42:43;;;;;;;9.50;8.60;;;;;;;27.09;43.43;95435.44;6217072;28;108896;-72
2023/07/11 09:45:46;;;;;;;8.87;8.17;;;;;;;27.09;43.95;95440.81;6191052;28;110417;-70
2023/07/11 09:48:53;;;;;;;8.37;7.67;;;;;;;27.04;43.35;95432.94;6174018;28;109106;-71
2023/07/11 09:52:00;;;;;;;8.43;7.83;;;;;;;27.05;43.38;95427.25;6185295;28;109164;-70
2023/07/11 09:55:03;;;;;;;8.13;7.43;;;;;;;27.06;43.07;95431.53;6185710;28;108921;-72
2023/07/11 09:58:16;;;;;;;8.47;7.83;;;;;;;27.06;42.99;95428.84;6180865;28;109258;-72
2023/07/11 10:01:24;;;;;;;8.20;7.60;;;;;;;27.02;43.55;95427.13;6180663;28;110552;-71
2023/07/11 10:04:28;;;;;;;8.00;7.30;;;;;;;27.05;43.49;95426.44;6184809;28;109153;-71
2023/07/11 10:07:34;;;;;;;8.50;7.90;;;;;;;27.03;43.29;95424.09;6185488;28;109253;-70
2023/07/11 10:10:45;;;;;;;8.30;7.70;;;;;;;27.04;43.27;95430.25;6175730;28;109311;-71
2023/07/11 10:13:56;;;;;;;8.40;7.80;;;;;;;27.00;42.86;95413.22;6188792;28;109390;-71
2023/07/11 10:17:02;;;;;;;8.00;7.30;;;;;;;27.01;43.21;95417.47;6209725;28;109088;-73
2023/07/11 10:20:13;;;;;;;7.43;6.93;;;;;;;27.00;43.08;95415.91;6209080;28;109098;-71
2023/07/11 10:23:25;;;;;;;8.43;7.17;;;;;;;26.99;42.70;95417.03;6198768;28;109370;-72
2023/07/11 10:26:30;;;;;;;7.70;7.10;;;;;;;26.98;43.13;95415.47;6210374;28;109333;-72
2023/07/11 10:29:41;;;;;;;7.30;6.80;;;;;;;26.98;43.03;95413.56;6209718;28;109374;-71
2023/07/11 10:32:49;;;;;;;8.10;7.33;;;;;;;26.98;42.71;95412.78;6202468;28;109047;-70
2023/07/11 10:35:57;;;;;;;8.37;7.67;;;;;;;26.97;43.29;95413.88;6209127;28;109322;-71
2023/07/11 10:39:04;;;;;;;8.07;7.40;;;;;;;26.95;43.00;95406.16;6210212;28;111160;-71
2023/07/11 10:42:19;;;;;;;7.27;6.77;;;;;;;26.96;42.90;95415.78;6209505;28;109050;-72
2023/07/11 10:45:27;;;;;;;7.77;7.17;;;;;;;26.94;43.44;95412.66;6183008;28;110255;-71
2023/07/11 10:48:43;;;;;;;7.83;7.30;;;;;;;26.95;42.90;95406.16;6184981;28;108728;-71
2023/07/11 10:51:52;;;;;;;7.33;6.87;;;;;;;26.95;43.06;95408.06;6184370;28;109096;-70
2023/07/11 10:55:02;;;;;;;7.67;7.07;;;;;;;26.93;42.89;95397.66;6185303;28;110834;-71
2023/07/11 10:58:06;;;;;;;8.40;7.77;;;;;;;26.92;42.85;95393.38;6183508;28;109258;-72
2023/07/11 11:01:19;;;;;;;8.00;7.40;;;;;;;26.90;43.26;95392.16;6188880;28;109010;-72
2023/07/11 11:04:42;;;;;;;8.07;7.47;;;;;;;26.89;43.56;95387.91;6188049;28;109306;-71
2023/07/11 11:07:50;;;;;;;8.23;7.53;;;;;;;26.90;43.19;95387.56;6179623;28;110026;-70
2023/07/11 11:11:03;;;;;;;7.87;7.27;;;;;;;26.90;43.30;95381.41;6188850;28;109288;-72
2023/07/11 11:14:13;;;;;;;7.50;7.00;;;;;;;26.87;43.77;95383.59;6192233;28;109572;-72
2023/07/11 11:17:29;;;;;;;8.47;7.83;;;;;;;26.89;43.82;95374.47;6214056;28;108809;-72
2023/07/11 11:20:40;;;;;;;8.60;7.80;;;;;;;26.87;43.49;95380.13;6206446;28;109155;-71
2023/07/11 11:24:14;;;;;;;8.73;8.03;;;;;;;26.85;43.38;95371.63;6212496;28;109188;-72
2023/07/11 11:27:29;;;;;;;8.23;7.60;;;;;;;26.84;43.68;95373.53;6213502;28;109053;-72
2023/07/11 11:30:48;;;;;;;8.10;7.47;;;;;;;26.83;43.77;95363.91;6202461;28;109039;-71
2023/07/11 11:34:07;;;;;;;8.17;7.37;;;;;;;26.86;43.21;95376.66;6213219;28;109215;-72
2023/07/11 11:37:22;;;;;;;8.00;7.50;;;;;;;26.81;43.88;95355.38;6212626;28;108917;-72
2023/07/11 11:40:29;;;;;;;7.50;7.00;;;;;;;26.84;43.29;95365.47;6208269;28;108858;-70
2023/07/11 11:43:34;;;;;;;8.37;7.77;;;;;;;26.73;43.46;95360.84;6207267;28;109079;-63
2023/07/11 11:46:57;;;;;;;7.20;6.70;;;;;;;26.79;42.91;95360.31;6163443;28;110648;-62
2023/07/11 11:50:06;;;;;;;7.70;7.10;;;;;;;26.82;42.80;95354.28;6162992;28;109567;-62
2023/07/11 11:53:22;;;;;;;7.73;7.13;;;;;;;26.83;42.44;95355.06;6152038;28;109031;-61
2023/07/11 11:56:28;;;;;;;7.80;7.20;;;;;;;26.80;42.62;95356.50;6162210;28;109046;-62
2023/07/11 11:59:33;;;;;;;7.37;6.70;;;;;;;26.83;42.53;95350.47;6163555;28;113520;-61
2023/07/11 12:02:40;;;;;;;7.10;6.50;;;;;;;26.79;42.76;95343.41;6162371;28;109062;-63
2023/07/11 12:05:49;;;;;;;7.23;6.73;;;;;;;26.80;42.63;95339.59;6151816;28;111376;-61
2023/07/11 12:09:38;;;;;;;7.87;7.27;;;;;;;26.77;42.80;95335.69;6163220;28;110527;-62
2023/07/11 12:13:09;;;;;;;7.23;6.63;;;;;;;26.75;42.73;95340.59;6162541;28;109122;-62
2023/07/11 12:19:42;;;;;;;7.43;6.87;;;;;;;26.76;42.78;95323.38;6285511;27;108664;-72
2023/07/11 12:23:21;;;;;;;7.57;6.97;;;;;;;26.77;42.40;95330.31;6283069;27;108905;-62
2023/07/11 12:26:44;;;;;;;7.67;6.97;;;;;;;26.76;42.61;95326.06;6272724;27;111509;-61
2023/07/11 12:29:52;;;;;;;8.00;6.90;;;;;;;26.75;42.62;95316.44;6282724;27;108892;-61
2023/07/11 12:32:55;;;;;;;7.20;6.60;;;;;;;26.76;42.33;95312.63;6282834;27;109043;-61
2023/07/11 12:36:23;;;;;;;6.90;6.40;;;;;;;26.77;42.58;95308.84;6283066;27;108919;-60
2023/07/11 12:39:46;;;;;;;7.40;6.80;;;;;;;26.77;41.97;95313.41;6271933;27;109401;-62
2023/07/11 12:42:52;;;;;;;7.57;6.93;;;;;;;26.79;41.61;95313.88;6282775;27;108935;-62
2023/07/11 12:45:57;;;;;;;7.70;7.00;;;;;;;26.75;42.41;95308.38;6283368;27;113678;-62
2023/07/11 12:49:02;;;;;;;7.70;7.00;;;;;;;26.73;42.36;95302.56;6277254;27;108704;-65
2023/07/11 12:52:11;;;;;;;7.20;6.70;;;;;;;26.75;42.30;95297.63;6279321;27;109063;-62
2023/07/11 12:55:15;;;;;;;6.83;6.23;;;;;;;26.73;42.08;95296.41;6283663;27;109591;-70
2023/07/11 12:58:20;;;;;;;7.10;6.60;;;;;;;26.73;41.86;95302.56;6282459;27;109251;-69
2023/07/11 13:01:24;;;;;;;6.97;6.40;;;;;;;26.76;42.14;95301.09;6271793;27;109111;-70
2023/07/11 13:04:34;;;;;;;7.33;6.73;;;;;;;26.73;41.73;95296.41;6282344;27;109500;-70
2023/07/11 13:07:38;;;;;;;7.57;6.97;;;;;;;26.74;41.92;95301.44;6282416;27;109255;-71
2023/07/11 13:10:42;;;;;;;7.27;6.60;;;;;;;26.72;42.29;95301.00;6282222;27;109092;-69
2023/07/11 13:13:48;;;;;;;7.37;6.67;;;;;;;26.74;41.59;95289.91;6271132;27;110019;-70
2023/07/11 13:16:51;;;;;;;7.30;6.77;;;;;;;26.71;41.76;95291.34;6256344;27;108930;-69
2023/07/11 13:19:59;;;;;;;7.23;6.63;;;;;;;26.73;41.52;95286.44;6256594;27;109152;-69
2023/07/11 13:23:04;;;;;;;7.10;6.40;;;;;;;26.71;41.78;95283.28;6251149;27;109265;-69
2023/07/11 13:26:10;;;;;;;7.97;6.77;;;;;;;26.72;41.68;95286.78;6252066;27;109015;-70
2023/07/11 13:29:17;;;;;;;6.73;6.23;;;;;;;26.70;41.67;95281.72;6249891;27;109283;-70
2023/07/11 13:32:23;;;;;;;6.40;5.90;;;;;;;26.71;41.93;95280.59;6239662;27;109198;-69
2023/07/11 13:35:27;;;;;;;7.43;6.83;;;;;;;26.74;41.79;95287.22;6229649;27;108963;-69
2023/07/11 13:38:39;;;;;;;7.30;6.70;;;;;;;26.74;41.51;95282.66;6235993;27;108818;-69
2023/07/11 13:41:48;;;;;;;6.40;5.83;;;;;;;26.75;41.82;95281.53;6239845;27;110078;-69
2023/07/11 13:44:53;;;;;;;7.30;6.70;;;;;;;26.74;42.04;95282.66;6247638;27;108946;-70
2023/07/11 13:47:56;;;;;;;6.70;6.20;;;;;;;26.73;41.85;95289.13;6254193;27;108973;-69
2023/07/11 13:51:18;;;;;;;7.80;7.20;;;;;;;26.72;41.81;95276.81;6264592;27;108955;-70
2023/07/11 13:54:30;;;;;;;6.93;6.40;;;;;;;26.71;42.25;95274.44;6264472;27;108879;-69
2023/07/11 13:57:33;;;;;;;6.80;6.30;;;;;;;26.75;42.13;95284.22;6254228;27;109239;-69
2023/07/11 14:00:46;;;;;;;6.87;6.27;;;;;;;26.74;41.45;95277.28;6263933;27;109068;-69
2023/07/11 14:03:52;;;;;;;6.57;6.07;;;;;;;26.75;42.43;95280.75;6264448;27;108952;-70
2023/07/11 14:06:55;;;;;;;7.43;6.83;;;;;;;26.72;41.91;95284.88;6264318;27;108952;-69
2023/07/11 14:09:59;;;;;;;7.03;6.43;;;;;;;26.73;41.66;95283.75;6255153;27;112410;-68
2023/07/11 14:13:03;;;;;;;6.60;6.00;;;;;;;26.74;41.93;95289.91;6264077;27;109312;-68
2023/07/11 14:16:06;;;;;;;6.80;6.30;;;;;;;26.76;42.05;95293.06;6264128;27;109930;-69
2023/07/11 14:19:24;;;;;;;7.10;6.60;;;;;;;26.76;41.87;95291.16;6263247;27;109894;-69
2023/07/11 14:22:27;;;;;;;7.30;6.67;;;;;;;26.77;41.64;95289.25;6257385;27;109059;-69
2023/07/11 14:25:33;;;;;;;7.60;6.30;;;;;;;26.76;41.19;95287.69;6263901;27;109233;-70